createdAt,value
2023-03-29T00:02:40.225Z,94556.00
2023-03-29T00:06:47.856Z,94557.00
2023-03-29T00:10:52.095Z,94562.00
2023-03-29T00:14:57.643Z,94544.00
2023-03-29T00:19:01.284Z,94552.00
2023-03-29T00:23:04.890Z,94550.00
2023-03-29T00:27:33.991Z,94556.00
2023-03-29T00:31:38.870Z,94557.00
2023-03-29T00:35:42.639Z,94549.00
2023-03-29T00:39:46.433Z,94533.00
2023-03-29T00:43:54.543Z,94537.00
2023-03-29T00:48:21.012Z,94542.00
2023-03-29T00:52:24.923Z,94534.00
2023-03-29T00:56:32.513Z,94536.00
2023-03-29T01:00:42.015Z,94515.00
2023-03-29T01:05:16.803Z,94548.00
2023-03-29T01:09:25.224Z,94531.00
2023-03-29T01:13:42.454Z,94499.00
2023-03-29T01:17:50.519Z,94519.00
2023-03-29T01:22:17.062Z,94520.00
2023-03-29T01:26:29.373Z,94518.00
2023-03-29T01:30:55.441Z,94517.00
2023-03-29T01:35:02.812Z,94514.00
2023-03-29T01:39:12.436Z,94500.00
2023-03-29T01:43:29.280Z,94481.00
2023-03-29T01:47:45.586Z,94517.00
2023-03-29T01:51:55.216Z,94519.00
2023-03-29T01:56:05.736Z,94513.00
2023-03-29T02:00:12.467Z,94494.00
2023-03-29T02:04:19.553Z,94509.00
2023-03-29T02:08:48.127Z,94512.00
2023-03-29T02:13:04.917Z,94507.00
2023-03-29T02:17:21.814Z,94506.00
2023-03-29T02:21:32.402Z,94506.00
2023-03-29T02:25:37.429Z,94486.00
2023-03-29T02:29:41.057Z,94499.00
2023-03-29T02:33:52.288Z,94499.00
2023-03-29T02:37:59.972Z,94482.00
2023-03-29T02:42:05.414Z,94475.00
2023-03-29T02:46:11.103Z,94477.00
2023-03-29T02:50:14.789Z,94482.00
2023-03-29T02:54:22.136Z,94471.00
2023-03-29T02:58:50.842Z,94481.00
2023-03-29T03:02:56.542Z,94475.00
2023-03-29T03:07:00.116Z,94460.00
2023-03-29T03:11:05.095Z,94455.00
2023-03-29T03:15:10.950Z,94456.00
2023-03-29T03:19:16.406Z,94468.00
2023-03-29T03:23:46.000Z,94464.00
2023-03-29T03:28:18.661Z,94451.00
2023-03-29T03:32:23.504Z,94455.00
2023-03-29T03:36:36.360Z,94426.00
2023-03-29T03:40:41.146Z,94425.00
2023-03-29T03:44:46.326Z,94435.00
2023-03-29T03:49:08.553Z,94420.00
2023-03-29T03:53:18.223Z,94443.00
2023-03-29T03:57:52.215Z,94440.00
2023-03-29T04:01:58.545Z,94433.00
2023-03-29T04:06:30.728Z,94461.00
2023-03-29T04:11:00.790Z,94457.00
2023-03-29T04:15:24.645Z,94422.00
2023-03-29T04:19:38.258Z,94425.00
2023-03-29T04:23:43.224Z,94421.00
2023-03-29T04:27:47.812Z,94424.00
2023-03-29T04:32:14.077Z,94402.00
2023-03-29T04:36:39.242Z,94402.00
2023-03-29T04:41:32.793Z,94410.00
2023-03-29T04:45:51.833Z,94412.00
2023-03-29T04:50:15.863Z,94411.00
2023-03-29T04:54:22.965Z,94400.00
2023-03-29T04:58:45.503Z,94422.00
2023-03-29T05:02:49.691Z,94433.00
2023-03-29T05:06:54.185Z,94420.00
2023-03-29T05:11:02.364Z,94407.00
2023-03-29T05:15:07.218Z,94422.00
2023-03-29T05:19:11.487Z,94420.00
2023-03-29T05:23:18.867Z,94413.00
2023-03-29T05:28:02.479Z,94421.00
2023-03-29T05:32:31.794Z,94435.00
2023-03-29T05:36:46.816Z,94441.00
2023-03-29T05:40:53.395Z,94445.00
2023-03-29T05:45:16.689Z,94418.00
2023-03-29T05:49:20.618Z,94450.00
2023-03-29T05:54:01.596Z,94443.00
2023-03-29T05:58:05.285Z,94443.00
2023-03-29T06:02:15.579Z,94441.00
2023-03-29T06:06:39.142Z,94440.00
2023-03-29T06:10:43.088Z,94429.00
2023-03-29T06:15:05.150Z,94434.00
2023-03-29T06:19:25.602Z,94418.00
2023-03-29T06:23:32.019Z,94439.00
2023-03-29T06:27:46.844Z,94434.00
2023-03-29T06:31:52.529Z,94441.00
2023-03-29T06:36:18.506Z,94439.00
2023-03-29T06:40:47.471Z,94435.00
2023-03-29T06:45:17.097Z,94438.00
2023-03-29T06:49:49.663Z,94440.00
2023-03-29T06:54:22.330Z,94442.00
2023-03-29T06:58:47.216Z,94438.00
2023-03-29T07:03:24.604Z,94432.00
2023-03-29T07:07:44.296Z,94451.00
2023-03-29T07:12:04.094Z,94457.00
2023-03-29T07:16:09.136Z,94448.00
2023-03-29T07:20:31.199Z,94445.00
2023-03-29T07:24:41.612Z,94448.00
2023-03-29T07:28:46.589Z,94448.00
2023-03-29T07:33:14.847Z,94456.00
2023-03-29T07:37:32.248Z,94459.00
2023-03-29T07:41:37.219Z,94434.00
2023-03-29T07:45:49.778Z,94437.00
2023-03-29T07:49:53.324Z,94446.00
2023-03-29T07:53:57.237Z,94443.00
2023-03-29T07:58:26.874Z,94438.00
2023-03-29T08:02:32.103Z,94459.00
2023-03-29T08:06:38.975Z,94444.00
2023-03-29T08:10:42.802Z,94452.00
2023-03-29T08:15:07.490Z,94445.00
2023-03-29T08:19:12.999Z,94443.00
2023-03-29T08:23:29.883Z,94450.00
2023-03-29T08:27:48.153Z,94455.00
2023-03-29T08:32:05.180Z,94463.00
2023-03-29T08:36:10.958Z,94456.00
2023-03-29T08:40:34.075Z,94446.00
2023-03-29T08:45:02.511Z,94460.00
2023-03-29T08:49:09.568Z,94438.00
2023-03-29T08:53:20.896Z,94460.00
2023-03-29T08:57:46.550Z,94450.00
2023-03-29T09:02:00.600Z,94452.00
2023-03-29T09:06:06.872Z,94423.00
2023-03-29T09:10:19.748Z,94446.00
2023-03-29T09:14:49.000Z,94463.00
2023-03-29T09:19:19.238Z,94453.00
2023-03-29T09:23:47.777Z,94439.00
2023-03-29T09:28:15.036Z,94454.00
2023-03-29T09:32:33.293Z,94436.00
2023-03-29T09:36:47.781Z,94436.00
2023-03-29T09:40:56.858Z,94433.00
2023-03-29T09:45:11.958Z,94439.00
2023-03-29T09:49:26.787Z,94436.00
2023-03-29T09:53:30.731Z,94426.00
2023-03-29T09:57:50.269Z,94437.00
2023-03-29T10:02:12.091Z,94404.00
2023-03-29T10:12:02.376Z,94437.00
2023-03-29T10:16:09.400Z,94438.00
2023-03-29T10:20:17.096Z,94418.00
2023-03-29T10:24:22.500Z,94415.00
2023-03-29T10:28:27.731Z,94410.00
2023-03-29T10:32:34.379Z,94425.00
2023-03-29T10:41:35.209Z,94402.00
2023-03-29T10:45:40.125Z,94383.00
2023-03-29T10:49:47.401Z,94400.00
2023-03-29T10:53:54.131Z,94373.00
2023-03-29T10:58:11.600Z,94381.00
2023-03-29T11:02:39.467Z,94376.00
2023-03-29T11:06:58.368Z,94377.00
2023-03-29T11:11:21.198Z,94386.00
2023-03-29T11:15:47.337Z,94362.00
2023-03-29T11:20:05.314Z,94351.00
2023-03-29T11:24:27.724Z,94345.00
2023-03-29T11:28:46.412Z,94332.00
2023-03-29T11:33:15.664Z,94347.00
2023-03-29T11:37:24.538Z,94346.00
2023-03-29T11:42:17.834Z,94342.00
2023-03-29T11:46:49.354Z,94339.00
2023-03-29T11:51:09.901Z,94325.00
2023-03-29T11:55:16.777Z,94312.00
2023-03-29T11:59:27.488Z,94321.00
2023-03-29T12:03:40.370Z,94317.00
2023-03-29T12:07:48.827Z,94330.00
2023-03-29T12:16:45.687Z,94310.00
2023-03-29T12:20:57.711Z,94314.00
2023-03-29T12:25:05.457Z,94285.00
2023-03-29T12:29:30.057Z,94296.00
2023-03-29T12:33:55.707Z,94289.00
2023-03-29T12:38:25.183Z,94295.00
2023-03-29T12:42:55.407Z,94299.00
2023-03-29T12:47:24.604Z,94289.00
2023-03-29T12:51:42.835Z,94287.00
2023-03-29T12:56:13.830Z,94287.00
2023-03-29T13:00:45.417Z,94276.00
2023-03-29T13:04:52.396Z,94263.00
2023-03-29T13:09:00.680Z,94271.00
2023-03-29T13:13:25.180Z,94265.00
2023-03-29T13:17:38.063Z,94252.00
2023-03-29T13:22:06.436Z,94256.00
2023-03-29T13:26:34.027Z,94261.00
2023-03-29T13:31:06.398Z,94250.00
2023-03-29T13:35:21.481Z,94251.00
2023-03-29T13:39:29.583Z,94256.00
2023-03-29T13:43:39.367Z,94236.00
2023-03-29T13:47:54.953Z,94244.00
2023-03-29T13:52:21.278Z,94250.00
2023-03-29T13:56:27.856Z,94239.00
2023-03-29T14:00:38.257Z,94260.00
2023-03-29T14:04:51.914Z,94253.00
2023-03-29T14:08:56.741Z,94242.00
2023-03-29T14:13:04.136Z,94223.00
2023-03-29T14:17:20.961Z,94218.00
2023-03-29T14:21:26.261Z,94225.00
2023-03-29T14:25:31.300Z,94231.00
2023-03-29T14:30:00.139Z,94231.00
2023-03-29T14:34:16.318Z,94209.00
2023-03-29T14:38:21.639Z,94209.00
2023-03-29T14:42:28.042Z,94209.00
2023-03-29T14:46:37.013Z,94214.00
2023-03-29T14:50:41.264Z,94219.00
2023-03-29T14:54:52.115Z,94215.00
2023-03-29T14:58:56.714Z,94219.00
2023-03-29T15:03:02.358Z,94208.00
2023-03-29T15:07:25.379Z,94216.00
2023-03-29T15:11:31.875Z,94211.00
2023-03-29T15:15:37.818Z,94187.00
2023-03-29T15:20:29.910Z,94205.00
2023-03-29T15:24:35.722Z,94191.00
2023-03-29T15:29:08.267Z,94185.00
2023-03-29T15:33:25.350Z,94198.00
2023-03-29T15:37:29.643Z,94183.00
2023-03-29T15:41:38.397Z,94188.00
2023-03-29T15:45:43.777Z,94183.00
2023-03-29T15:49:48.684Z,94191.00
2023-03-29T15:54:17.600Z,94193.00
2023-03-29T15:58:24.165Z,94199.00
2023-03-29T16:02:32.689Z,94201.00
2023-03-29T16:06:36.395Z,94185.00
2023-03-29T16:10:40.596Z,94169.00
2023-03-29T16:14:46.548Z,94201.00
2023-03-29T16:18:51.456Z,94196.00
2023-03-29T16:22:55.542Z,94195.00
2023-03-29T16:27:49.279Z,94187.00
2023-03-29T16:31:54.007Z,94199.00
2023-03-29T16:35:59.120Z,94199.00
2023-03-29T16:40:02.922Z,94195.00
2023-03-29T16:44:06.834Z,94176.00
2023-03-29T16:48:13.542Z,94198.00
2023-03-29T16:52:18.431Z,94202.00
2023-03-29T16:56:22.914Z,94198.00
2023-03-29T17:00:52.127Z,94195.00
2023-03-29T17:04:58.696Z,94190.00
2023-03-29T17:09:03.866Z,94176.00
2023-03-29T17:13:08.203Z,94189.00
2023-03-29T17:17:37.871Z,94184.00
2023-03-29T17:21:41.434Z,94172.00
2023-03-29T17:25:46.402Z,94178.00
2023-03-29T17:29:50.261Z,94184.00
2023-03-29T17:33:54.006Z,94193.00
2023-03-29T17:37:57.948Z,94189.00
2023-03-29T17:42:31.378Z,94200.00
2023-03-29T17:46:34.992Z,94214.00
2023-03-29T17:50:38.557Z,94215.00
2023-03-29T17:54:47.152Z,94215.00
2023-03-29T17:58:52.139Z,94213.00
2023-03-29T18:02:55.761Z,94219.00
2023-03-29T18:07:24.727Z,94214.00
2023-03-29T18:11:55.996Z,94213.00
2023-03-29T18:16:04.809Z,94209.00
2023-03-29T18:20:11.980Z,94212.00
2023-03-29T18:24:15.629Z,94213.00
2023-03-29T18:28:21.573Z,94205.00
2023-03-29T18:32:26.592Z,94201.00
2023-03-29T18:36:30.558Z,94206.00
2023-03-29T18:40:34.818Z,94235.00
2023-03-29T18:45:13.777Z,94230.00
2023-03-29T18:49:19.217Z,94230.00
2023-03-29T18:53:22.658Z,94242.00
2023-03-29T18:57:26.326Z,94239.00
2023-03-29T19:01:29.898Z,94248.00
2023-03-29T19:05:34.925Z,94238.00
2023-03-29T19:09:48.704Z,94247.00
2023-03-29T19:13:52.478Z,94240.00
2023-03-29T19:17:56.072Z,94249.00
2023-03-29T19:22:04.701Z,94220.00
2023-03-29T19:26:09.283Z,94228.00
2023-03-29T19:30:13.493Z,94244.00
2023-03-29T19:34:42.738Z,94224.00
2023-03-29T19:39:13.181Z,94233.00
2023-03-29T19:44:07.289Z,94244.00
2023-03-29T19:48:21.134Z,94213.00
2023-03-29T19:52:38.446Z,94228.00
2023-03-29T19:56:44.395Z,94237.00
2023-03-29T20:00:48.055Z,94235.00
2023-03-29T20:04:53.042Z,94225.00
2023-03-29T20:08:56.556Z,94220.00
2023-03-29T20:13:01.403Z,94223.00
2023-03-29T20:17:14.434Z,94218.00
2023-03-29T20:21:18.486Z,94217.00
2023-03-29T20:25:22.462Z,94223.00
2023-03-29T20:29:34.158Z,94216.00
2023-03-29T20:33:37.731Z,94198.00
2023-03-29T20:37:41.228Z,94206.00
2023-03-29T20:41:47.804Z,94212.00
2023-03-29T20:45:54.345Z,94183.00
2023-03-29T20:50:26.162Z,94211.00
2023-03-29T20:54:34.590Z,94212.00
2023-03-29T20:58:42.059Z,94209.00
2023-03-29T21:02:47.590Z,94211.00
2023-03-29T21:06:54.245Z,94206.00
2023-03-29T21:10:57.743Z,94199.00
2023-03-29T21:15:02.582Z,94190.00
2023-03-29T21:19:07.433Z,94190.00
2023-03-29T21:23:10.936Z,94182.00
2023-03-29T21:27:40.046Z,94180.00
2023-03-29T21:31:43.537Z,94183.00
2023-03-29T21:35:50.592Z,94178.00
2023-03-29T21:39:54.150Z,94166.00
2023-03-29T21:43:57.717Z,94156.00
2023-03-29T21:48:01.314Z,94159.00
2023-03-29T21:52:06.364Z,94157.00
2023-03-29T21:56:12.053Z,94146.00
2023-03-29T22:00:40.591Z,94153.00
2023-03-29T22:04:46.323Z,94155.00
2023-03-29T22:08:53.253Z,94144.00
2023-03-29T22:12:58.433Z,94147.00
2023-03-29T22:17:28.793Z,94153.00
2023-03-29T22:21:37.416Z,94131.00
2023-03-29T22:25:42.305Z,94130.00
2023-03-29T22:29:45.920Z,94124.00
2023-03-29T22:33:53.888Z,94124.00
2023-03-29T22:37:57.544Z,94135.00
2023-03-29T22:42:07.685Z,94125.00
2023-03-29T22:46:13.299Z,94134.00
2023-03-29T22:50:16.863Z,94140.00
2023-03-29T22:54:35.778Z,94126.00
2023-03-29T22:58:40.671Z,94126.00
2023-03-29T23:02:44.157Z,94125.00
2023-03-29T23:07:13.645Z,94123.00
2023-03-29T23:11:20.447Z,94114.00
2023-03-29T23:15:26.281Z,94087.00
2023-03-29T23:19:31.218Z,94077.00
2023-03-29T23:23:34.781Z,94103.00
2023-03-29T23:27:38.419Z,94083.00
2023-03-29T23:31:44.568Z,94065.00
2023-03-29T23:35:48.250Z,94077.00
2023-03-29T23:39:52.858Z,94071.00
2023-03-29T23:43:57.818Z,94073.00
2023-03-29T23:48:02.874Z,94073.00
2023-03-29T23:52:07.508Z,94085.00
2023-03-29T23:56:10.860Z,94072.00
